sensor_id;sensor_type;location;lat;lon;timestamp;pressure;altitude;pressure_sealevel;temperature;humidity
30856;BME280;17570;0.000;0.000;2023-05-10T00:02:10;97342.22;;;21.53;46.52
30856;BME280;17570;0.000;0.000;2023-05-10T00:04:37;97339.77;;;21.52;46.49
30856;BME280;17570;0.000;0.000;2023-05-10T00:07:05;97332.03;;;21.50;46.33
30856;BME280;17570;0.000;0.000;2023-05-10T00:09:33;97324.73;;;21.52;46.55
30856;BME280;17570;0.000;0.000;2023-05-10T00:12:00;97322.28;;;21.51;46.38
30856;BME280;17570;0.000;0.000;2023-05-10T00:14:28;97323.10;;;21.51;45.95
30856;BME280;17570;0.000;0.000;2023-05-10T00:16:55;97326.56;;;21.52;46.17
30856;BME280;17570;0.000;0.000;2023-05-10T00:19:22;97324.73;;;21.52;45.85
30856;BME280;17570;0.000;0.000;2023-05-10T00:21:50;97316.81;;;21.52;45.64
30856;BME280;17570;0.000;0.000;2023-05-10T00:24:17;97316.62;;;21.54;45.87
30856;BME280;17570;0.000;0.000;2023-05-10T00:26:45;97317.63;;;21.53;45.69
30856;BME280;17570;0.000;0.000;2023-05-10T00:29:13;97311.72;;;21.51;45.79
30856;BME280;17570;0.000;0.000;2023-05-10T00:31:40;97313.55;;;21.50;45.88
30856;BME280;17570;0.000;0.000;2023-05-10T00:34:09;97324.92;;;21.51;45.95
30856;BME280;17570;0.000;0.000;2023-05-10T00:36:36;97323.45;;;21.48;45.38
30856;BME280;17570;0.000;0.000;2023-05-10T00:39:05;97315.72;;;21.47;45.46
30856;BME280;17570;0.000;0.000;2023-05-10T00:41:33;97321.82;;;21.47;45.37
30856;BME280;17570;0.000;0.000;2023-05-10T00:44:01;97313.08;;;21.47;45.66
30856;BME280;17570;0.000;0.000;2023-05-10T00:46:29;97319.53;;;21.44;45.24
30856;BME280;17570;0.000;0.000;2023-05-10T00:48:58;97317.09;;;21.43;45.82
30856;BME280;17570;0.000;0.000;2023-05-10T00:51:25;97318.25;;;21.40;45.64
30856;BME280;17570;0.000;0.000;2023-05-10T00:53:54;97317.27;;;21.41;45.85
30856;BME280;17570;0.000;0.000;2023-05-10T00:56:22;97316.46;;;21.41;45.20
30856;BME280;17570;0.000;0.000;2023-05-10T00:58:51;97313.62;;;21.42;45.50
30856;BME280;17570;0.000;0.000;2023-05-10T01:01:19;97315.45;;;21.42;45.78
30856;BME280;17570;0.000;0.000;2023-05-10T01:03:46;97305.05;;;21.40;45.53
30856;BME280;17570;0.000;0.000;2023-05-10T01:06:15;97305.23;;;21.38;45.14
30856;BME280;17570;0.000;0.000;2023-05-10T01:08:42;97301.97;;;21.36;45.23
30856;BME280;17570;0.000;0.000;2023-05-10T01:11:11;97303.80;;;21.36;45.56
30856;BME280;17570;0.000;0.000;2023-05-10T01:13:39;97299.50;;;21.35;45.30
30856;BME280;17570;0.000;0.000;2023-05-10T01:16:08;97302.33;;;21.33;45.60
30856;BME280;17570;0.000;0.000;2023-05-10T01:18:36;97300.69;;;21.32;45.48
30856;BME280;17570;0.000;0.000;2023-05-10T01:34:02;97296.00;;;21.20;45.38
30856;BME280;17570;0.000;0.000;2023-05-10T01:36:30;97289.82;;;21.12;45.56
30856;BME280;17570;0.000;0.000;2023-05-10T01:39:02;97290.25;;;21.16;45.40
30856;BME280;17570;0.000;0.000;2023-05-10T01:41:34;97285.44;;;21.20;45.21
30856;BME280;17570;0.000;0.000;2023-05-10T01:44:02;97280.98;;;21.20;45.28
30856;BME280;17570;0.000;0.000;2023-05-10T01:46:37;97281.17;;;21.19;45.63
30856;BME280;17570;0.000;0.000;2023-05-10T01:48:57;97282.61;;;21.21;45.53
30856;BME280;17570;0.000;0.000;2023-05-10T01:51:27;97276.35;;;21.22;45.27
30856;BME280;17570;0.000;0.000;2023-05-10T01:53:58;97281.98;;;21.19;45.29
30856;BME280;17570;0.000;0.000;2023-05-10T01:56:24;97284.62;;;21.19;45.32
30856;BME280;17570;0.000;0.000;2023-05-10T01:58:53;97288.08;;;21.20;45.26
30856;BME280;17570;0.000;0.000;2023-05-10T02:01:21;97296.19;;;21.18;45.30
30856;BME280;17570;0.000;0.000;2023-05-10T02:03:50;97296.35;;;21.17;45.39
30856;BME280;17570;0.000;0.000;2023-05-10T02:06:19;97291.27;;;21.15;45.31
30856;BME280;17570;0.000;0.000;2023-05-10T02:08:48;97288.63;;;21.15;45.31
30856;BME280;17570;0.000;0.000;2023-05-10T02:11:17;97296.73;;;21.13;45.99
30856;BME280;17570;0.000;0.000;2023-05-10T02:13:45;97293.09;;;21.14;45.48
30856;BME280;17570;0.000;0.000;2023-05-10T02:16:14;97293.27;;;21.13;45.44
30856;BME280;17570;0.000;0.000;2023-05-10T02:18:43;97286.17;;;21.13;45.56
30856;BME280;17570;0.000;0.000;2023-05-10T02:21:12;97291.45;;;21.13;45.29
30856;BME280;17570;0.000;0.000;2023-05-10T02:23:41;97288.16;;;21.11;45.36
30856;BME280;17570;0.000;0.000;2023-05-10T02:26:09;97284.89;;;21.09;45.16
30856;BME280;17570;0.000;0.000;2023-05-10T02:28:38;97285.52;;;21.11;45.20
30856;BME280;17570;0.000;0.000;2023-05-10T02:31:06;97277.32;;;21.06;45.05
30856;BME280;17570;0.000;0.000;2023-05-10T02:33:38;97280.62;;;21.08;45.18
30856;BME280;17570;0.000;0.000;2023-05-10T02:36:07;97277.52;;;21.05;45.30
30856;BME280;17570;0.000;0.000;2023-05-10T02:38:36;97271.77;;;21.01;45.43
30856;BME280;17570;0.000;0.000;2023-05-10T02:41:03;97276.23;;;21.01;45.18
30856;BME280;17570;0.000;0.000;2023-05-10T02:43:33;97271.77;;;21.01;45.26
30856;BME280;17570;0.000;0.000;2023-05-10T02:46:01;97274.13;;;20.96;45.10
30856;BME280;17570;0.000;0.000;2023-05-10T02:48:29;97268.22;;;20.94;44.90
30856;BME280;17570;0.000;0.000;2023-05-10T02:50:59;97275.13;;;20.95;45.41
30856;BME280;17570;0.000;0.000;2023-05-10T02:53:34;97276.14;;;20.94;45.36
30856;BME280;17570;0.000;0.000;2023-05-10T02:55:59;97279.75;;;20.93;45.08
30856;BME280;17570;0.000;0.000;2023-05-10T02:58:27;97275.20;;;20.87;44.50
30856;BME280;17570;0.000;0.000;2023-05-10T03:00:54;97270.27;;;20.84;43.84
30856;BME280;17570;0.000;0.000;2023-05-10T03:03:22;97271.13;;;20.84;43.65
30856;BME280;17570;0.000;0.000;2023-05-10T03:05:50;97269.64;;;20.82;43.66
30856;BME280;17570;0.000;0.000;2023-05-10T03:08:19;97276.93;;;20.80;43.84
30856;BME280;17570;0.000;0.000;2023-05-10T03:13:35;97268.08;;;20.73;43.77
30856;BME280;17570;0.000;0.000;2023-05-10T03:16:18;97262.86;;;20.64;43.66
30856;BME280;17570;0.000;0.000;2023-05-10T03:21:22;97250.87;;;20.62;43.87
30856;BME280;17570;0.000;0.000;2023-05-10T03:23:58;97254.48;;;20.61;43.47
30856;BME280;17570;0.000;0.000;2023-05-10T03:26:27;97250.05;;;20.61;43.29
30856;BME280;17570;0.000;0.000;2023-05-10T03:28:53;97256.14;;;20.62;43.00
30856;BME280;17570;0.000;0.000;2023-05-10T03:31:21;97264.87;;;20.62;43.42
30856;BME280;17570;0.000;0.000;2023-05-10T03:33:49;97260.41;;;20.63;43.45
30856;BME280;17570;0.000;0.000;2023-05-10T03:36:19;97267.51;;;20.62;43.57
30856;BME280;17570;0.000;0.000;2023-05-10T03:38:47;97264.21;;;20.60;43.26
30856;BME280;17570;0.000;0.000;2023-05-10T03:41:15;97268.86;;;20.58;43.32
30856;BME280;17570;0.000;0.000;2023-05-10T03:43:42;97277.77;;;20.57;43.50
30856;BME280;17570;0.000;0.000;2023-05-10T03:46:10;97271.84;;;20.55;43.67
30856;BME280;17570;0.000;0.000;2023-05-10T03:48:38;97276.30;;;20.55;43.52
30856;BME280;17570;0.000;0.000;2023-05-10T03:51:06;97272.41;;;20.66;43.86
30856;BME280;17570;0.000;0.000;2023-05-10T03:53:34;97277.21;;;20.85;44.68
30856;BME280;17570;0.000;0.000;2023-05-10T03:56:02;97278.50;;;20.89;44.57
30856;BME280;17570;0.000;0.000;2023-05-10T03:58:29;97281.48;;;20.86;44.55
30856;BME280;17570;0.000;0.000;2023-05-10T04:00:57;97279.31;;;20.89;44.34
30856;BME280;17570;0.000;0.000;2023-05-10T04:03:25;97282.30;;;20.86;44.22
30856;BME280;17570;0.000;0.000;2023-05-10T04:06:01;97283.66;;;20.82;44.65
30856;BME280;17570;0.000;0.000;2023-05-10T04:08:29;97283.19;;;20.79;43.83
30856;BME280;17570;0.000;0.000;2023-05-10T04:11:07;97292.70;;;20.65;44.01
30856;BME280;17570;0.000;0.000;2023-05-10T04:13:33;97302.80;;;20.61;44.15
30856;BME280;17570;0.000;0.000;2023-05-10T04:16:01;97287.03;;;20.53;44.01
30856;BME280;17570;0.000;0.000;2023-05-10T04:18:29;97287.84;;;20.54;44.31
30856;BME280;17570;0.000;0.000;2023-05-10T04:20:56;97286.74;;;20.48;43.82
30856;BME280;17570;0.000;0.000;2023-05-10T04:23:24;97288.69;;;20.46;43.84
30856;BME280;17570;0.000;0.000;2023-05-10T04:25:52;97292.33;;;20.45;43.52
30856;BME280;17570;0.000;0.000;2023-05-10T04:28:19;97294.67;;;20.40;43.50
30856;BME280;17570;0.000;0.000;2023-05-10T04:30:48;97297.02;;;20.35;43.25
30856;BME280;17570;0.000;0.000;2023-05-10T04:33:15;97292.91;;;20.32;43.70
30856;BME280;17570;0.000;0.000;2023-05-10T04:35:43;97288.63;;;20.31;43.77
30856;BME280;17570;0.000;0.000;2023-05-10T04:38:11;97291.27;;;20.31;43.86
30856;BME280;17570;0.000;0.000;2023-05-10T04:40:39;97290.16;;;20.26;43.90
30856;BME280;17570;0.000;0.000;2023-05-10T04:43:06;97285.41;;;20.21;43.41
30856;BME280;17570;0.000;0.000;2023-05-10T04:45:34;97280.48;;;20.18;43.43
30856;BME280;17570;0.000;0.000;2023-05-10T04:48:01;97281.66;;;20.16;43.54
30856;BME280;17570;0.000;0.000;2023-05-10T04:50:29;97282.66;;;20.15;43.38
30856;BME280;17570;0.000;0.000;2023-05-10T04:52:56;97280.37;;;20.11;43.26
30856;BME280;17570;0.000;0.000;2023-05-10T04:55:24;97277.06;;;20.09;43.24
30856;BME280;17570;0.000;0.000;2023-05-10T04:57:53;97283.00;;;20.11;43.34
30856;BME280;17570;0.000;0.000;2023-05-10T05:00:22;97282.34;;;20.09;43.51
30856;BME280;17570;0.000;0.000;2023-05-10T05:02:49;97290.09;;;20.11;43.98
30856;BME280;17570;0.000;0.000;2023-05-10T05:05:17;97287.27;;;20.12;43.57
30856;BME280;17570;0.000;0.000;2023-05-10T05:07:45;97279.36;;;20.12;43.69
30856;BME280;17570;0.000;0.000;2023-05-10T05:10:12;97284.00;;;20.10;43.19
30856;BME280;17570;0.000;0.000;2023-05-10T05:12:40;97286.64;;;20.10;43.45
30856;BME280;17570;0.000;0.000;2023-05-10T05:15:07;97290.24;;;20.09;43.18
30856;BME280;17570;0.000;0.000;2023-05-10T05:17:36;97285.97;;;20.08;43.00
30856;BME280;17570;0.000;0.000;2023-05-10T05:20:03;97292.25;;;20.07;43.14
30856;BME280;17570;0.000;0.000;2023-05-10T05:22:31;97286.64;;;20.10;43.27
30856;BME280;17570;0.000;0.000;2023-05-10T05:24:58;97287.75;;;20.16;43.20
30856;BME280;17570;0.000;0.000;2023-05-10T05:27:27;97280.66;;;20.17;43.53
30856;BME280;17570;0.000;0.000;2023-05-10T05:29:54;97281.14;;;20.20;43.35
30856;BME280;17570;0.000;0.000;2023-05-10T05:32:22;97285.08;;;20.24;43.20
30856;BME280;17570;0.000;0.000;2023-05-10T05:34:50;97288.82;;;20.30;42.98
30856;BME280;17570;0.000;0.000;2023-05-10T05:37:18;97284.84;;;20.34;42.93
30856;BME280;17570;0.000;0.000;2023-05-10T05:39:46;97285.13;;;20.39;42.57
30856;BME280;17570;0.000;0.000;2023-05-10T05:42:13;97289.40;;;20.40;41.94
30856;BME280;17570;0.000;0.000;2023-05-10T05:44:42;97285.42;;;20.44;41.94
30856;BME280;17570;0.000;0.000;2023-05-10T05:47:10;97287.75;;;20.47;42.68
30856;BME280;17570;0.000;0.000;2023-05-10T05:49:37;97287.22;;;20.52;42.43
30856;BME280;17570;0.000;0.000;2023-05-10T05:52:06;97287.66;;;20.55;42.57
30856;BME280;17570;0.000;0.000;2023-05-10T05:54:33;97292.06;;;20.63;42.68
30856;BME280;17570;0.000;0.000;2023-05-10T05:57:01;97282.43;;;20.70;42.67
30856;BME280;17570;0.000;0.000;2023-05-10T05:59:33;97291.09;;;20.79;42.41
30856;BME280;17570;0.000;0.000;2023-05-10T06:02:00;97285.29;;;20.83;42.33
30856;BME280;17570;0.000;0.000;2023-05-10T06:04:28;97286.42;;;20.89;42.25
30856;BME280;17570;0.000;0.000;2023-05-10T06:06:55;97289.14;;;20.96;42.13
30856;BME280;17570;0.000;0.000;2023-05-10T06:09:23;97292.06;;;21.01;42.13
30856;BME280;17570;0.000;0.000;2023-05-10T06:11:50;97287.87;;;21.06;42.21
30856;BME280;17570;0.000;0.000;2023-05-10T06:14:20;97297.22;;;16.53;46.88
30856;BME280;17570;0.000;0.000;2023-05-10T06:16:48;97290.88;;;17.00;49.50
30856;BME280;17570;0.000;0.000;2023-05-10T06:19:16;97291.09;;;19.15;45.34
30856;BME280;17570;0.000;0.000;2023-05-10T06:21:43;97283.78;;;20.20;43.23
30856;BME280;17570;0.000;0.000;2023-05-10T06:24:11;97281.45;;;20.71;42.45
30856;BME280;17570;0.000;0.000;2023-05-10T06:26:38;97282.67;;;20.98;41.75
30856;BME280;17570;0.000;0.000;2023-05-10T06:29:06;97288.44;;;21.17;41.79
30856;BME280;17570;0.000;0.000;2023-05-10T06:31:33;97296.42;;;21.31;41.76
30856;BME280;17570;0.000;0.000;2023-05-10T06:34:01;97297.97;;;21.41;41.89
30856;BME280;17570;0.000;0.000;2023-05-10T06:36:28;97301.31;;;21.49;41.10
30856;BME280;17570;0.000;0.000;2023-05-10T06:38:56;97298.98;;;21.54;41.42
30856;BME280;17570;0.000;0.000;2023-05-10T06:41:23;97303.98;;;21.64;40.66
30856;BME280;17570;0.000;0.000;2023-05-10T06:43:53;97306.34;;;21.74;40.81
30856;BME280;17570;0.000;0.000;2023-05-10T06:46:20;97308.86;;;21.82;40.23
30856;BME280;17570;0.000;0.000;2023-05-10T06:48:47;97305.85;;;21.85;40.12
30856;BME280;17570;0.000;0.000;2023-05-10T06:51:15;97305.56;;;21.95;39.94
30856;BME280;17570;0.000;0.000;2023-05-10T06:53:42;97310.95;;;22.01;39.89
30856;BME280;17570;0.000;0.000;2023-05-10T06:56:10;97316.03;;;22.18;40.08
30856;BME280;17570;0.000;0.000;2023-05-10T06:58:39;97304.11;;;22.43;40.67
30856;BME280;17570;0.000;0.000;2023-05-10T07:01:07;97312.71;;;22.52;40.19
30856;BME280;17570;0.000;0.000;2023-05-10T07:03:34;97314.38;;;22.53;39.75
30856;BME280;17570;0.000;0.000;2023-05-10T07:06:02;97312.34;;;22.55;39.68
30856;BME280;17570;0.000;0.000;2023-05-10T07:08:34;97313.16;;;22.55;39.28
30856;BME280;17570;0.000;0.000;2023-05-10T07:13:31;97313.05;;;22.63;38.64
30856;BME280;17570;0.000;0.000;2023-05-10T07:15:59;97314.67;;;22.64;38.30
30856;BME280;17570;0.000;0.000;2023-05-10T07:18:26;97316.50;;;22.64;38.35
30856;BME280;17570;0.000;0.000;2023-05-10T07:20:54;97318.34;;;22.63;38.00
30856;BME280;17570;0.000;0.000;2023-05-10T07:23:21;97319.97;;;22.64;37.73
30856;BME280;17570;0.000;0.000;2023-05-10T07:25:49;97314.55;;;22.73;37.04
30856;BME280;17570;0.000;0.000;2023-05-10T07:28:19;97316.26;;;22.80;36.68
30856;BME280;17570;0.000;0.000;2023-05-10T07:30:47;97319.97;;;22.86;37.12
30856;BME280;17570;0.000;0.000;2023-05-10T07:33:14;97316.30;;;22.87;36.36
30856;BME280;17570;0.000;0.000;2023-05-10T07:35:42;97320.41;;;22.89;36.08
30856;BME280;17570;0.000;0.000;2023-05-10T07:38:10;97324.15;;;22.95;36.44
30856;BME280;17570;0.000;0.000;2023-05-10T07:40:40;97328.22;;;22.98;36.45
30856;BME280;17570;0.000;0.000;2023-05-10T07:43:08;97328.22;;;22.98;35.79
30856;BME280;17570;0.000;0.000;2023-05-10T07:45:35;97317.70;;;23.04;35.95
30856;BME280;17570;0.000;0.000;2023-05-10T07:48:03;97318.55;;;23.11;35.17
30856;BME280;17570;0.000;0.000;2023-05-10T07:50:31;97316.55;;;23.13;35.08
30856;BME280;17570;0.000;0.000;2023-05-10T07:52:58;97321.68;;;23.22;34.62
30856;BME280;17570;0.000;0.000;2023-05-10T07:55:26;97320.28;;;23.26;34.48
30856;BME280;17570;0.000;0.000;2023-05-10T07:57:54;97324.39;;;23.28;33.53
30856;BME280;17570;0.000;0.000;2023-05-10T08:00:21;97323.00;;;23.32;33.92
30856;BME280;17570;0.000;0.000;2023-05-10T08:02:49;97321.98;;;23.33;32.70
30856;BME280;17570;0.000;0.000;2023-05-10T08:05:16;97324.86;;;23.38;32.95
30856;BME280;17570;0.000;0.000;2023-05-10T08:07:44;97319.36;;;23.40;32.80
30856;BME280;17570;0.000;0.000;2023-05-10T08:10:11;97317.15;;;23.43;32.68
30856;BME280;17570;0.000;0.000;2023-05-10T08:12:39;97317.97;;;23.44;33.30
30856;BME280;17570;0.000;0.000;2023-05-10T08:15:07;97325.16;;;23.50;33.33
30856;BME280;17570;0.000;0.000;2023-05-10T08:17:35;97317.84;;;23.59;33.36
30856;BME280;17570;0.000;0.000;2023-05-10T08:20:02;97313.64;;;23.64;32.68
30856;BME280;17570;0.000;0.000;2023-05-10T08:22:30;97317.34;;;23.70;33.22
30856;BME280;17570;0.000;0.000;2023-05-10T08:24:57;97322.05;;;23.75;32.57
30856;BME280;17570;0.000;0.000;2023-05-10T08:27:25;97319.83;;;23.78;33.51
30856;BME280;17570;0.000;0.000;2023-05-10T08:29:52;97329.20;;;23.81;32.40
30856;BME280;17570;0.000;0.000;2023-05-10T08:32:20;97323.52;;;23.84;32.46
30856;BME280;17570;0.000;0.000;2023-05-10T08:34:47;97319.87;;;23.91;32.43
30856;BME280;17570;0.000;0.000;2023-05-10T08:37:15;97321.31;;;23.94;31.56
30856;BME280;17570;0.000;0.000;2023-05-10T08:39:42;97314.61;;;23.98;31.08
30856;BME280;17570;0.000;0.000;2023-05-10T08:42:11;97320.34;;;24.02;31.15
30856;BME280;17570;0.000;0.000;2023-05-10T08:44:39;97323.17;;;24.00;31.58
30856;BME280;17570;0.000;0.000;2023-05-10T08:47:07;97312.98;;;24.04;31.96
30856;BME280;17570;0.000;0.000;2023-05-10T08:49:36;97320.56;;;24.07;32.19
30856;BME280;17570;0.000;0.000;2023-05-10T08:52:04;97315.25;;;24.07;31.89
30856;BME280;17570;0.000;0.000;2023-05-10T08:54:33;97319.15;;;24.11;32.20
30856;BME280;17570;0.000;0.000;2023-05-10T08:57:02;97319.55;;;24.14;32.65
30856;BME280;17570;0.000;0.000;2023-05-10T08:59:31;97318.17;;;24.25;32.26
30856;BME280;17570;0.000;0.000;2023-05-10T09:02:00;97317.15;;;24.26;32.06
30856;BME280;17570;0.000;0.000;2023-05-10T09:04:28;97321.86;;;24.31;32.15
30856;BME280;17570;0.000;0.000;2023-05-10T09:06:56;97327.59;;;24.34;32.78
30856;BME280;17570;0.000;0.000;2023-05-10T09:09:24;97323.98;;;24.55;32.77
30856;BME280;17570;0.000;0.000;2023-05-10T09:11:52;97327.87;;;24.59;32.51
30856;BME280;17570;0.000;0.000;2023-05-10T09:14:20;97320.72;;;24.60;32.42
30856;BME280;17570;0.000;0.000;2023-05-10T09:16:49;97322.14;;;24.56;32.30
30856;BME280;17570;0.000;0.000;2023-05-10T09:19:17;97326.63;;;24.55;31.71
30856;BME280;17570;0.000;0.000;2023-05-10T09:21:44;97325.81;;;24.55;32.74
30856;BME280;17570;0.000;0.000;2023-05-10T09:24:12;97314.82;;;24.78;33.93
30856;BME280;17570;0.000;0.000;2023-05-10T09:26:46;97318.50;;;24.83;33.43
30856;BME280;17570;0.000;0.000;2023-05-10T09:29:16;97317.48;;;24.78;34.92
30856;BME280;17570;0.000;0.000;2023-05-10T09:31:47;97314.41;;;24.67;33.09
30856;BME280;17570;0.000;0.000;2023-05-10T09:34:17;97313.59;;;24.67;33.82
30856;BME280;17570;0.000;0.000;2023-05-10T09:36:55;97311.33;;;24.64;33.00
30856;BME280;17570;0.000;0.000;2023-05-10T09:39:32;97310.31;;;24.65;32.45
30856;BME280;17570;0.000;0.000;2023-05-10T09:42:07;97307.84;;;24.57;31.96
30856;BME280;17570;0.000;0.000;2023-05-10T09:44:32;97303.34;;;24.51;31.62
30856;BME280;17570;0.000;0.000;2023-05-10T09:47:03;97300.30;;;24.54;31.83
30856;BME280;17570;0.000;0.000;2023-05-10T09:49:32;97303.16;;;24.59;31.95
30856;BME280;17570;0.000;0.000;2023-05-10T09:52:03;97298.45;;;24.61;32.00
30856;BME280;17570;0.000;0.000;2023-05-10T09:54:29;97301.52;;;24.71;31.89
30856;BME280;17570;0.000;0.000;2023-05-10T09:56:57;97293.98;;;24.75;31.22
30856;BME280;17570;0.000;0.000;2023-05-10T09:59:25;97296.84;;;24.80;31.50
30856;BME280;17570;0.000;0.000;2023-05-10T10:01:59;97291.55;;;24.86;30.62
30856;BME280;17570;0.000;0.000;2023-05-10T10:04:23;97291.53;;;24.93;30.99
30856;BME280;17570;0.000;0.000;2023-05-10T10:07:03;97288.67;;;25.01;31.26
30856;BME280;17570;0.000;0.000;2023-05-10T10:09:31;97288.70;;;25.14;31.66
30856;BME280;17570;0.000;0.000;2023-05-10T10:12:02;97285.20;;;25.21;31.45
30856;BME280;17570;0.000;0.000;2023-05-10T10:14:31;97285.59;;;25.37;30.47
30856;BME280;17570;0.000;0.000;2023-05-10T10:16:59;97279.41;;;25.50;30.54
30856;BME280;17570;0.000;0.000;2023-05-10T10:19:27;97285.94;;;25.61;31.68
30856;BME280;17570;0.000;0.000;2023-05-10T10:21:55;97283.88;;;25.69;29.88
30856;BME280;17570;0.000;0.000;2023-05-10T10:24:23;97281.20;;;25.76;28.09
30856;BME280;17570;0.000;0.000;2023-05-10T10:26:52;97282.38;;;25.93;27.75
30856;BME280;17570;0.000;0.000;2023-05-10T10:29:29;97285.56;;;26.09;28.28
30856;BME280;17570;0.000;0.000;2023-05-10T10:34:29;97284.98;;;26.00;27.48
30856;BME280;17570;0.000;0.000;2023-05-10T10:36:59;97282.96;;;25.95;27.51
30856;BME280;17570;0.000;0.000;2023-05-10T10:39:27;97284.00;;;25.94;27.76
30856;BME280;17570;0.000;0.000;2023-05-10T10:41:56;97287.25;;;25.97;27.82
30856;BME280;17570;0.000;0.000;2023-05-10T10:44:25;97286.44;;;25.96;28.62
30856;BME280;17570;0.000;0.000;2023-05-10T10:47:04;97278.90;;;25.93;27.13
30856;BME280;17570;0.000;0.000;2023-05-10T10:49:22;97278.50;;;25.89;27.24
30856;BME280;17570;0.000;0.000;2023-05-10T10:54:35;97278.50;;;25.89;27.62
30856;BME280;17570;0.000;0.000;2023-05-10T10:57:12;97279.55;;;25.75;27.01
30856;BME280;17570;0.000;0.000;2023-05-10T10:59:43;97287.34;;;25.77;27.24
30856;BME280;17570;0.000;0.000;2023-05-10T11:04:57;97280.59;;;25.67;27.87
30856;BME280;17570;0.000;0.000;2023-05-10T11:07:25;97278.41;;;25.51;27.50
30856;BME280;17570;0.000;0.000;2023-05-10T11:09:53;97281.06;;;25.51;26.60
30856;BME280;17570;0.000;0.000;2023-05-10T11:12:21;97276.56;;;25.52;26.77
30856;BME280;17570;0.000;0.000;2023-05-10T11:14:49;97280.03;;;25.45;27.61
30856;BME280;17570;0.000;0.000;2023-05-10T11:17:24;97279.03;;;25.40;26.96
30856;BME280;17570;0.000;0.000;2023-05-10T11:20:11;97263.70;;;25.42;27.58
30856;BME280;17570;0.000;0.000;2023-05-10T11:22:51;97264.92;;;25.39;27.66
30856;BME280;17570;0.000;0.000;2023-05-10T11:25:19;97268.23;;;25.28;27.73
30856;BME280;17570;0.000;0.000;2023-05-10T11:27:49;97264.36;;;25.24;29.07
30856;BME280;17570;0.000;0.000;2023-05-10T11:30:27;97257.98;;;25.32;28.80
30856;BME280;17570;0.000;0.000;2023-05-10T11:32:54;97254.73;;;25.30;28.39
30856;BME280;17570;0.000;0.000;2023-05-10T11:35:21;97254.30;;;25.39;28.26
30856;BME280;17570;0.000;0.000;2023-05-10T11:37:49;97255.92;;;25.47;28.00
30856;BME280;17570;0.000;0.000;2023-05-10T11:40:16;97251.83;;;25.51;28.30
30856;BME280;17570;0.000;0.000;2023-05-10T11:42:44;97249.98;;;25.52;28.08
30856;BME280;17570;0.000;0.000;2023-05-10T11:45:14;97250.79;;;25.52;27.23
30856;BME280;17570;0.000;0.000;2023-05-10T11:47:41;97250.16;;;25.50;27.49
30856;BME280;17570;0.000;0.000;2023-05-10T11:50:10;97243.66;;;25.46;27.24
30856;BME280;17570;0.000;0.000;2023-05-10T11:52:38;97252.64;;;25.45;26.94
30856;BME280;17570;0.000;0.000;2023-05-10T11:55:07;97250.23;;;25.37;26.06
30856;BME280;17570;0.000;0.000;2023-05-10T11:57:35;97247.77;;;25.35;27.28
30856;BME280;17570;0.000;0.000;2023-05-10T12:00:05;97252.27;;;25.35;26.92
30856;BME280;17570;0.000;0.000;2023-05-10T12:02:33;97244.70;;;25.32;27.01
30856;BME280;17570;0.000;0.000;2023-05-10T12:05:00;97237.57;;;25.32;26.80
30856;BME280;17570;0.000;0.000;2023-05-10T12:07:29;97251.86;;;25.31;26.58
30856;BME280;17570;0.000;0.000;2023-05-10T12:10:03;97245.73;;;25.31;27.23
30856;BME280;17570;0.000;0.000;2023-05-10T12:12:38;97244.51;;;25.27;27.18
30856;BME280;17570;0.000;0.000;2023-05-10T12:15:06;97243.50;;;25.21;26.90
30856;BME280;17570;0.000;0.000;2023-05-10T12:17:36;97245.32;;;25.27;27.40
30856;BME280;17570;0.000;0.000;2023-05-10T12:20:14;97246.91;;;25.48;27.65
30856;BME280;17570;0.000;0.000;2023-05-10T12:22:52;97247.50;;;25.57;28.80
30856;BME280;17570;0.000;0.000;2023-05-10T12:25:20;97247.51;;;25.50;27.72
30856;BME280;17570;0.000;0.000;2023-05-10T12:27:56;97243.66;;;25.39;27.17
30856;BME280;17570;0.000;0.000;2023-05-10T12:30:27;97243.88;;;25.31;26.87
30856;BME280;17570;0.000;0.000;2023-05-10T12:32:59;97243.91;;;25.25;27.07
30856;BME280;17570;0.000;0.000;2023-05-10T12:35:23;97232.47;;;25.24;27.40
30856;BME280;17570;0.000;0.000;2023-05-10T12:37:51;97240.85;;;25.28;27.10
30856;BME280;17570;0.000;0.000;2023-05-10T12:40:19;97234.50;;;25.29;28.08
30856;BME280;17570;0.000;0.000;2023-05-10T12:42:46;97228.75;;;25.32;27.32
30856;BME280;17570;0.000;0.000;2023-05-10T12:45:15;97218.37;;;25.24;26.04
30856;BME280;17570;0.000;0.000;2023-05-10T12:47:43;97220.22;;;25.23;26.05
30856;BME280;17570;0.000;0.000;2023-05-10T12:50:11;97217.56;;;25.23;26.51
30856;BME280;17570;0.000;0.000;2023-05-10T12:52:38;97228.75;;;25.32;25.94
30856;BME280;17570;0.000;0.000;2023-05-10T12:55:06;97213.25;;;25.29;24.91
30856;BME280;17570;0.000;0.000;2023-05-10T12:57:34;97214.65;;;25.38;25.53
30856;BME280;17570;0.000;0.000;2023-05-10T13:00:01;97208.04;;;25.54;26.33
30856;BME280;17570;0.000;0.000;2023-05-10T13:02:29;97213.91;;;25.76;26.43
30856;BME280;17570;0.000;0.000;2023-05-10T13:04:56;97207.54;;;26.15;27.95
30856;BME280;17570;0.000;0.000;2023-05-10T13:07:24;97203.09;;;26.65;28.60
30856;BME280;17570;0.000;0.000;2023-05-10T13:09:51;97189.73;;;27.15;28.69
30856;BME280;17570;0.000;0.000;2023-05-10T13:12:19;97195.41;;;27.56;29.16
30856;BME280;17570;0.000;0.000;2023-05-10T13:14:46;97188.95;;;27.82;29.03
30856;BME280;17570;0.000;0.000;2023-05-10T13:17:13;97194.61;;;28.04;28.44
30856;BME280;17570;0.000;0.000;2023-05-10T13:19:41;97190.27;;;28.33;28.69
30856;BME280;17570;0.000;0.000;2023-05-10T13:22:08;97177.69;;;28.63;28.64
30856;BME280;17570;0.000;0.000;2023-05-10T13:24:36;97173.64;;;28.96;28.36
30856;BME280;17570;0.000;0.000;2023-05-10T13:27:03;97169.29;;;29.18;28.52
30856;BME280;17570;0.000;0.000;2023-05-10T13:29:33;97174.92;;;29.45;28.07
30856;BME280;17570;0.000;0.000;2023-05-10T13:32:00;97175.50;;;29.59;27.72
30856;BME280;17570;0.000;0.000;2023-05-10T13:34:28;97172.92;;;29.64;26.51
30856;BME280;17570;0.000;0.000;2023-05-10T13:36:56;97171.39;;;29.68;26.70
30856;BME280;17570;0.000;0.000;2023-05-10T13:39:23;97173.51;;;29.66;26.85
30856;BME280;17570;0.000;0.000;2023-05-10T13:41:51;97162.12;;;29.59;26.39
30856;BME280;17570;0.000;0.000;2023-05-10T13:44:19;97162.93;;;29.60;26.50
30856;BME280;17570;0.000;0.000;2023-05-10T13:46:47;97161.19;;;29.54;25.39